METAR AND TAF INFORMATION
METAR FOR UAII
ADDS - METARS form results

(1820 UTC 24 September 2020)
Data provider http://aviationweather.gov/metar/data/
 
METAR text: UAII 241800Z 14003MPS CAVOK 12/M01 Q1018 R28/0///70 NOSIG RMK QFE726/0969
Conditions at: UAII (CIMKENT , KZ) observed 1800 UTC 24 September 2020
Temperature: 12.0°C (54°F)
Dewpoint: -1.0°C (30°F) [RH = 40%]
Pressure (altimeter): 30.06 inches Hg (1018.0 mb)
Winds: from the SE (140 degrees) at 7 MPH (6 knots; 3.1 m/s)
Visibility: 6 or more miles (10+ km)
Ceiling: ceiling and visibility are OK
Clouds: unknown
Weather: no significant weather observed at this time

METAR text: UAII 241730Z 15003MPS 6000 NSC 12/M01 Q1019 R28/0///70 NOSIG RMK QFE727/0969
Conditions at: UAII (CIMKENT , KZ) observed 1730 UTC 24 September 2020
Temperature: 12.0°C (54°F)
Dewpoint: -1.0°C (30°F) [RH = 40%]
Pressure (altimeter): 30.09 inches Hg (1019.0 mb)
Winds: from the SSE (150 degrees) at 7 MPH (6 knots; 3.1 m/s)
Visibility: 4 miles ( 6 km)
Ceiling: at least 12,000 feet AGL
Clouds: sky clear below 12,000 feet AGL
Weather: no significant weather observed at this time

Forecast for: UAII (CIMKENT , KZ)
Text: TAF UAII 241709Z 2418/2518 13003G08MPS 6000 SCT050 BKN100 TX26/2510Z TN10/2501Z
Forecast period: 1800 UTC 24 September 2020 to 1800 UTC 25 September 2020
Forecast type: FROM: standard forecast or significant change
Winds: from the SE (130 degrees) at 7 MPH (6 knots; 3.1 m/s)
gusting to 18 MPH (16 knots; 8.2 m/s)
Visibility: 4 miles (6 km)
Ceiling: 10000 feet AGL
Clouds: scattered clouds at 5000 feet AGL
broken clouds at 10000 feet AGL
Weather: no significant weather forecast for this period
Text: TEMPO 2418/2503 09003G08MPS 4000 FU
Forecast period: 1800 UTC 24 September 2020 to 0300 UTC 25 September 2020
Forecast type: TEMPORARY: The following changes expected for less than half the time period
Winds: from the E (90 degrees) at 7 MPH (6 knots; 3.1 m/s)
gusting to 18 MPH (16 knots; 8.2 m/s)
Visibility: 2.49 miles (4.01 km)
Ceiling: unknown
Clouds: missing
Weather: FU  (smoke)
Text: TEMPO 2503/2512 03008G13MPS
Forecast period: 0300 to 1200 UTC 25 September 2020
Forecast type: TEMPORARY: The following changes expected for less than half the time period
Winds: from the NNE (30 degrees) at 18 MPH (16 knots; 8.2 m/s)
gusting to 29 MPH (25 knots; 12.9 m/s)
Visibility: missing
Ceiling: unknown
Clouds: missing
Weather: no significant weather forecast for this period

 AIRPORT MAP

 RUNWAY INFORMATION

 AIRPORT FREQUENCIES
Type TWR Name TWR Frequency 118.7 MHZ

 AIRPORT NEAR NAVIGATION AIDS
Type NDB Name Shymkent Frequency 360 KHZ
Type NDB Name Shymkent Frequency 360 KHZ



2018 Air Astana Virtual Airline